sensor_id;sensor_type;location;lat;lon;timestamp;P1;durP1;ratioP1;P2;durP2;ratioP2
4355;SDS011;64374;51.482;7.408;2024-03-02T00:01:27;2.67;;;1.93;;
4355;SDS011;64374;51.482;7.408;2024-03-02T00:03:58;2.93;;;1.67;;
4355;SDS011;64374;51.482;7.408;2024-03-02T00:06:29;2.57;;;1.83;;
4355;SDS011;64374;51.482;7.408;2024-03-02T00:08:59;2.77;;;2.07;;
4355;SDS011;64374;51.482;7.408;2024-03-02T00:11:33;4.67;;;1.80;;
4355;SDS011;64374;51.482;7.408;2024-03-02T00:14:03;1.67;;;1.50;;
4355;SDS011;64374;51.482;7.408;2024-03-02T00:16:32;2.23;;;1.50;;
4355;SDS011;64374;51.482;7.408;2024-03-02T00:19:01;2.40;;;1.70;;
4355;SDS011;64374;51.482;7.408;2024-03-02T00:21:32;2.60;;;1.70;;
4355;SDS011;64374;51.482;7.408;2024-03-02T00:24:00;1.87;;;1.67;;
4355;SDS011;64374;51.482;7.408;2024-03-02T00:26:35;2.60;;;1.57;;
4355;SDS011;64374;51.482;7.408;2024-03-02T00:29:04;1.80;;;1.70;;
4355;SDS011;64374;51.482;7.408;2024-03-02T00:31:32;4.33;;;2.00;;
4355;SDS011;64374;51.482;7.408;2024-03-02T00:34:00;3.30;;;2.13;;
4355;SDS011;64374;51.482;7.408;2024-03-02T00:36:32;4.20;;;2.10;;
4355;SDS011;64374;51.482;7.408;2024-03-02T00:39:01;2.93;;;2.20;;
4355;SDS011;64374;51.482;7.408;2024-03-02T00:41:30;3.47;;;2.20;;
4355;SDS011;64374;51.482;7.408;2024-03-02T00:44:14;3.00;;;1.90;;
4355;SDS011;64374;51.482;7.408;2024-03-02T00:46:43;2.20;;;1.43;;
4355;SDS011;64374;51.482;7.408;2024-03-02T00:49:17;2.57;;;1.90;;
4355;SDS011;64374;51.482;7.408;2024-03-02T00:51:48;2.33;;;1.67;;
4355;SDS011;64374;51.482;7.408;2024-03-02T00:54:21;5.33;;;1.60;;
4355;SDS011;64374;51.482;7.408;2024-03-02T00:56:53;1.53;;;1.33;;
4355;SDS011;64374;51.482;7.408;2024-03-02T00:59:27;1.63;;;1.53;;
4355;SDS011;64374;51.482;7.408;2024-03-02T01:01:56;1.93;;;1.73;;
4355;SDS011;64374;51.482;7.408;2024-03-02T01:04:26;2.70;;;2.00;;
4355;SDS011;64374;51.482;7.408;2024-03-02T01:06:57;2.07;;;1.90;;
4355;SDS011;64374;51.482;7.408;2024-03-02T01:09:25;2.80;;;1.70;;
4355;SDS011;64374;51.482;7.408;2024-03-02T01:11:56;1.83;;;1.57;;
4355;SDS011;64374;51.482;7.408;2024-03-02T01:14:28;2.60;;;1.70;;
4355;SDS011;64374;51.482;7.408;2024-03-02T01:16:58;2.10;;;1.70;;
4355;SDS011;64374;51.482;7.408;2024-03-02T01:19:29;3.20;;;1.70;;
4355;SDS011;64374;51.482;7.408;2024-03-02T01:22:07;2.03;;;1.30;;
4355;SDS011;64374;51.482;7.408;2024-03-02T01:24:38;2.50;;;1.57;;
4355;SDS011;64374;51.482;7.408;2024-03-02T01:27:07;2.67;;;1.87;;
4355;SDS011;64374;51.482;7.408;2024-03-02T01:29:36;2.50;;;1.53;;
4355;SDS011;64374;51.482;7.408;2024-03-02T01:32:05;1.73;;;1.20;;
4355;SDS011;64374;51.482;7.408;2024-03-02T01:34:42;1.80;;;1.70;;
4355;SDS011;64374;51.482;7.408;2024-03-02T01:37:10;2.00;;;1.73;;
4355;SDS011;64374;51.482;7.408;2024-03-02T01:39:43;2.90;;;1.43;;
4355;SDS011;64374;51.482;7.408;2024-03-02T01:42:14;1.63;;;1.23;;
4355;SDS011;64374;51.482;7.408;2024-03-02T01:44:43;3.03;;;1.97;;
4355;SDS011;64374;51.482;7.408;2024-03-02T01:47:12;2.63;;;2.27;;
4355;SDS011;64374;51.482;7.408;2024-03-02T01:49:40;2.67;;;2.00;;
4355;SDS011;64374;51.482;7.408;2024-03-02T01:52:11;1.50;;;1.40;;
4355;SDS011;64374;51.482;7.408;2024-03-02T01:54:42;2.53;;;1.60;;
4355;SDS011;64374;51.482;7.408;2024-03-02T01:57:11;1.40;;;1.30;;
4355;SDS011;64374;51.482;7.408;2024-03-02T01:59:48;1.97;;;1.60;;
4355;SDS011;64374;51.482;7.408;2024-03-02T02:02:17;1.60;;;1.50;;
4355;SDS011;64374;51.482;7.408;2024-03-02T02:04:46;1.87;;;1.60;;
4355;SDS011;64374;51.482;7.408;2024-03-02T02:07:17;3.80;;;1.53;;
4355;SDS011;64374;51.482;7.408;2024-03-02T02:09:47;2.10;;;1.30;;
4355;SDS011;64374;51.482;7.408;2024-03-02T02:12:21;2.47;;;1.53;;
4355;SDS011;64374;51.482;7.408;2024-03-02T02:14:55;3.00;;;1.50;;
4355;SDS011;64374;51.482;7.408;2024-03-02T02:17:23;1.83;;;1.50;;
4355;SDS011;64374;51.482;7.408;2024-03-02T02:19:54;4.60;;;1.97;;
4355;SDS011;64374;51.482;7.408;2024-03-02T02:22:26;1.73;;;1.20;;
4355;SDS011;64374;51.482;7.408;2024-03-02T02:24:54;2.20;;;1.40;;
4355;SDS011;64374;51.482;7.408;2024-03-02T02:27:22;2.77;;;1.60;;
4355;SDS011;64374;51.482;7.408;2024-03-02T02:29:50;5.13;;;1.40;;
4355;SDS011;64374;51.482;7.408;2024-03-02T02:32:18;4.60;;;1.50;;
4355;SDS011;64374;51.482;7.408;2024-03-02T02:34:46;4.30;;;1.43;;
4355;SDS011;64374;51.482;7.408;2024-03-02T02:37:23;3.17;;;1.47;;
4355;SDS011;64374;51.482;7.408;2024-03-02T02:39:52;2.40;;;1.53;;
4355;SDS011;64374;51.482;7.408;2024-03-02T02:42:26;2.40;;;1.50;;
4355;SDS011;64374;51.482;7.408;2024-03-02T02:44:58;3.17;;;1.60;;
4355;SDS011;64374;51.482;7.408;2024-03-02T02:47:27;3.13;;;1.20;;
4355;SDS011;64374;51.482;7.408;2024-03-02T02:49:56;1.40;;;1.30;;
4355;SDS011;64374;51.482;7.408;2024-03-02T02:52:25;1.70;;;1.30;;
4355;SDS011;64374;51.482;7.408;2024-03-02T02:54:59;2.50;;;1.30;;
4355;SDS011;64374;51.482;7.408;2024-03-02T02:57:30;2.00;;;1.40;;
4355;SDS011;64374;51.482;7.408;2024-03-02T03:00:02;1.53;;;1.37;;
4355;SDS011;64374;51.482;7.408;2024-03-02T03:02:37;1.93;;;1.50;;
4355;SDS011;64374;51.482;7.408;2024-03-02T03:05:06;1.70;;;1.50;;
4355;SDS011;64374;51.482;7.408;2024-03-02T03:07:39;6.33;;;2.00;;
4355;SDS011;64374;51.482;7.408;2024-03-02T03:10:07;4.00;;;1.83;;
4355;SDS011;64374;51.482;7.408;2024-03-02T03:12:35;2.70;;;1.43;;
4355;SDS011;64374;51.482;7.408;2024-03-02T03:15:08;1.63;;;1.30;;
4355;SDS011;64374;51.482;7.408;2024-03-02T03:17:37;3.90;;;1.20;;
4355;SDS011;64374;51.482;7.408;2024-03-02T03:20:06;3.00;;;1.63;;
4355;SDS011;64374;51.482;7.408;2024-03-02T03:22:38;2.60;;;1.40;;
4355;SDS011;64374;51.482;7.408;2024-03-02T03:25:07;1.90;;;1.47;;
4355;SDS011;64374;51.482;7.408;2024-03-02T03:27:35;5.70;;;1.37;;
4355;SDS011;64374;51.482;7.408;2024-03-02T03:30:04;1.40;;;1.30;;
4355;SDS011;64374;51.482;7.408;2024-03-02T03:32:33;2.40;;;1.67;;
4355;SDS011;64374;51.482;7.408;2024-03-02T03:35:02;1.77;;;1.30;;
4355;SDS011;64374;51.482;7.408;2024-03-02T03:37:31;5.90;;;1.43;;
4355;SDS011;64374;51.482;7.408;2024-03-02T03:40:03;1.20;;;1.00;;
4355;SDS011;64374;51.482;7.408;2024-03-02T03:42:37;2.10;;;1.43;;
4355;SDS011;64374;51.482;7.408;2024-03-02T03:45:06;3.60;;;1.67;;
4355;SDS011;64374;51.482;7.408;2024-03-02T03:47:35;3.53;;;1.70;;
4355;SDS011;64374;51.482;7.408;2024-03-02T03:50:03;2.90;;;1.13;;
4355;SDS011;64374;51.482;7.408;2024-03-02T03:52:34;1.60;;;1.37;;
4355;SDS011;64374;51.482;7.408;2024-03-02T03:55:04;3.00;;;1.10;;
4355;SDS011;64374;51.482;7.408;2024-03-02T03:57:34;2.17;;;1.10;;
4355;SDS011;64374;51.482;7.408;2024-03-02T04:00:02;1.77;;;1.30;;
4355;SDS011;64374;51.482;7.408;2024-03-02T04:02:40;2.17;;;1.37;;
4355;SDS011;64374;51.482;7.408;2024-03-02T04:05:08;2.97;;;1.23;;
4355;SDS011;64374;51.482;7.408;2024-03-02T04:07:38;1.60;;;1.20;;
4355;SDS011;64374;51.482;7.408;2024-03-02T04:10:09;2.13;;;1.40;;
4355;SDS011;64374;51.482;7.408;2024-03-02T04:12:39;1.87;;;1.10;;
4355;SDS011;64374;51.482;7.408;2024-03-02T04:15:08;2.90;;;1.40;;
4355;SDS011;64374;51.482;7.408;2024-03-02T04:17:36;1.70;;;1.20;;
4355;SDS011;64374;51.482;7.408;2024-03-02T04:20:04;3.27;;;1.40;;
4355;SDS011;64374;51.482;7.408;2024-03-02T04:22:33;1.40;;;1.30;;
4355;SDS011;64374;51.482;7.408;2024-03-02T04:25:02;1.33;;;1.10;;
4355;SDS011;64374;51.482;7.408;2024-03-02T04:27:35;2.20;;;1.07;;
4355;SDS011;64374;51.482;7.408;2024-03-02T04:30:04;2.20;;;1.50;;
4355;SDS011;64374;51.482;7.408;2024-03-02T04:32:33;1.33;;;1.20;;
4355;SDS011;64374;51.482;7.408;2024-03-02T04:35:03;2.40;;;1.43;;
4355;SDS011;64374;51.482;7.408;2024-03-02T04:37:34;3.93;;;1.53;;
4355;SDS011;64374;51.482;7.408;2024-03-02T04:40:02;4.77;;;1.63;;
4355;SDS011;64374;51.482;7.408;2024-03-02T04:42:35;4.80;;;1.20;;
4355;SDS011;64374;51.482;7.408;2024-03-02T04:45:06;3.53;;;1.63;;
4355;SDS011;64374;51.482;7.408;2024-03-02T04:47:35;1.90;;;1.30;;
4355;SDS011;64374;51.482;7.408;2024-03-02T04:50:04;4.33;;;1.60;;
4355;SDS011;64374;51.482;7.408;2024-03-02T04:52:35;6.30;;;1.30;;
4355;SDS011;64374;51.482;7.408;2024-03-02T04:55:04;2.80;;;1.47;;
4355;SDS011;64374;51.482;7.408;2024-03-02T04:58:02;3.03;;;1.30;;
4355;SDS011;64374;51.482;7.408;2024-03-02T05:00:30;3.80;;;1.70;;
4355;SDS011;64374;51.482;7.408;2024-03-02T05:02:58;4.20;;;1.30;;
4355;SDS011;64374;51.482;7.408;2024-03-02T05:05:27;2.93;;;1.40;;
4355;SDS011;64374;51.482;7.408;2024-03-02T05:07:55;1.30;;;1.00;;
4355;SDS011;64374;51.482;7.408;2024-03-02T05:10:23;4.20;;;1.80;;
4355;SDS011;64374;51.482;7.408;2024-03-02T05:12:51;3.73;;;1.60;;
4355;SDS011;64374;51.482;7.408;2024-03-02T05:15:30;1.70;;;1.37;;
4355;SDS011;64374;51.482;7.408;2024-03-02T05:17:59;2.30;;;1.40;;
4355;SDS011;64374;51.482;7.408;2024-03-02T05:20:29;3.70;;;1.57;;
4355;SDS011;64374;51.482;7.408;2024-03-02T05:22:57;2.17;;;1.40;;
4355;SDS011;64374;51.482;7.408;2024-03-02T05:25:28;3.10;;;1.83;;
4355;SDS011;64374;51.482;7.408;2024-03-02T05:27:56;2.73;;;1.73;;
4355;SDS011;64374;51.482;7.408;2024-03-02T05:30:24;4.80;;;1.90;;
4355;SDS011;64374;51.482;7.408;2024-03-02T05:32:56;1.53;;;1.43;;
4355;SDS011;64374;51.482;7.408;2024-03-02T05:35:27;1.70;;;1.43;;
4355;SDS011;64374;51.482;7.408;2024-03-02T05:37:55;3.23;;;1.70;;
4355;SDS011;64374;51.482;7.408;2024-03-02T05:40:26;2.60;;;1.40;;
4355;SDS011;64374;51.482;7.408;2024-03-02T05:42:54;2.73;;;1.90;;
4355;SDS011;64374;51.482;7.408;2024-03-02T05:45:24;3.10;;;1.70;;
4355;SDS011;64374;51.482;7.408;2024-03-02T05:47:53;3.87;;;2.20;;
4355;SDS011;64374;51.482;7.408;2024-03-02T05:50:22;7.43;;;2.00;;
4355;SDS011;64374;51.482;7.408;2024-03-02T05:52:50;3.90;;;1.97;;
4355;SDS011;64374;51.482;7.408;2024-03-02T05:55:19;2.87;;;2.03;;
4355;SDS011;64374;51.482;7.408;2024-03-02T05:57:48;2.90;;;1.80;;
4355;SDS011;64374;51.482;7.408;2024-03-02T06:00:29;2.83;;;2.00;;
4355;SDS011;64374;51.482;7.408;2024-03-02T06:02:58;4.10;;;2.27;;
4355;SDS011;64374;51.482;7.408;2024-03-02T06:05:27;3.00;;;1.80;;
4355;SDS011;64374;51.482;7.408;2024-03-02T06:07:56;2.60;;;2.10;;
4355;SDS011;64374;51.482;7.408;2024-03-02T06:10:25;4.00;;;2.80;;
4355;SDS011;64374;51.482;7.408;2024-03-02T06:12:53;3.03;;;1.67;;
4355;SDS011;64374;51.482;7.408;2024-03-02T06:15:21;5.67;;;2.77;;
4355;SDS011;64374;51.482;7.408;2024-03-02T06:17:50;3.53;;;2.73;;
4355;SDS011;64374;51.482;7.408;2024-03-02T06:20:21;2.50;;;2.27;;
4355;SDS011;64374;51.482;7.408;2024-03-02T06:22:53;2.80;;;1.80;;
4355;SDS011;64374;51.482;7.408;2024-03-02T06:25:24;5.00;;;2.50;;
4355;SDS011;64374;51.482;7.408;2024-03-02T06:27:53;4.10;;;2.07;;
4355;SDS011;64374;51.482;7.408;2024-03-02T06:30:21;4.43;;;2.07;;
4355;SDS011;64374;51.482;7.408;2024-03-02T06:32:51;3.00;;;2.17;;
4355;SDS011;64374;51.482;7.408;2024-03-02T06:35:19;6.93;;;2.63;;
4355;SDS011;64374;51.482;7.408;2024-03-02T06:37:50;5.23;;;2.10;;
4355;SDS011;64374;51.482;7.408;2024-03-02T06:40:19;2.80;;;2.20;;
4355;SDS011;64374;51.482;7.408;2024-03-02T06:42:48;6.23;;;2.60;;
4355;SDS011;64374;51.482;7.408;2024-03-02T06:45:16;3.83;;;2.30;;
4355;SDS011;64374;51.482;7.408;2024-03-02T06:47:44;3.70;;;2.17;;
4355;SDS011;64374;51.482;7.408;2024-03-02T06:50:15;4.73;;;2.30;;
4355;SDS011;64374;51.482;7.408;2024-03-02T06:52:43;3.00;;;2.37;;
4355;SDS011;64374;51.482;7.408;2024-03-02T06:55:15;4.03;;;2.43;;
4355;SDS011;64374;51.482;7.408;2024-03-02T06:57:44;6.97;;;2.70;;
4355;SDS011;64374;51.482;7.408;2024-03-02T07:00:13;5.57;;;2.60;;
4355;SDS011;64374;51.482;7.408;2024-03-02T07:02:44;3.30;;;2.37;;
4355;SDS011;64374;51.482;7.408;2024-03-02T07:05:15;3.10;;;2.47;;
4355;SDS011;64374;51.482;7.408;2024-03-02T07:07:43;4.83;;;2.70;;
4355;SDS011;64374;51.482;7.408;2024-03-02T07:10:15;3.00;;;2.43;;
4355;SDS011;64374;51.482;7.408;2024-03-02T07:12:43;3.23;;;2.43;;
4355;SDS011;64374;51.482;7.408;2024-03-02T07:15:11;2.40;;;2.20;;
4355;SDS011;64374;51.482;7.408;2024-03-02T07:17:56;2.50;;;2.30;;
4355;SDS011;64374;51.482;7.408;2024-03-02T07:20:24;7.00;;;2.70;;
4355;SDS011;64374;51.482;7.408;2024-03-02T07:22:52;3.10;;;2.23;;
4355;SDS011;64374;51.482;7.408;2024-03-02T07:25:22;4.50;;;2.57;;
4355;SDS011;64374;51.482;7.408;2024-03-02T07:27:52;3.40;;;2.20;;
4355;SDS011;64374;51.482;7.408;2024-03-02T07:30:21;2.80;;;2.27;;
4355;SDS011;64374;51.482;7.408;2024-03-02T07:32:49;3.00;;;2.30;;
4355;SDS011;64374;51.482;7.408;2024-03-02T07:35:26;2.97;;;2.10;;
4355;SDS011;64374;51.482;7.408;2024-03-02T07:37:55;6.70;;;2.70;;
4355;SDS011;64374;51.482;7.408;2024-03-02T07:40:27;8.23;;;2.70;;
4355;SDS011;64374;51.482;7.408;2024-03-02T07:42:56;5.93;;;2.23;;
4355;SDS011;64374;51.482;7.408;2024-03-02T07:45:24;2.40;;;2.20;;
4355;SDS011;64374;51.482;7.408;2024-03-02T07:47:52;4.53;;;2.67;;
4355;SDS011;64374;51.482;7.408;2024-03-02T07:50:20;4.53;;;2.40;;
4355;SDS011;64374;51.482;7.408;2024-03-02T07:52:51;2.63;;;1.93;;
4355;SDS011;64374;51.482;7.408;2024-03-02T07:55:24;4.00;;;2.77;;
4355;SDS011;64374;51.482;7.408;2024-03-02T07:57:54;6.93;;;2.70;;
4355;SDS011;64374;51.482;7.408;2024-03-02T08:00:24;2.50;;;2.17;;
4355;SDS011;64374;51.482;7.408;2024-03-02T08:02:54;5.13;;;2.50;;
4355;SDS011;64374;51.482;7.408;2024-03-02T08:05:23;2.83;;;2.00;;
4355;SDS011;64374;51.482;7.408;2024-03-02T08:07:51;2.10;;;1.70;;
4355;SDS011;64374;51.482;7.408;2024-03-02T08:10:19;4.60;;;2.17;;
4355;SDS011;64374;51.482;7.408;2024-03-02T08:12:47;5.33;;;1.70;;
4355;SDS011;64374;51.482;7.408;2024-03-02T08:15:17;2.77;;;1.90;;
4355;SDS011;64374;51.482;7.408;2024-03-02T08:17:45;3.57;;;1.90;;
4355;SDS011;64374;51.482;7.408;2024-03-02T08:20:18;4.83;;;2.13;;
4355;SDS011;64374;51.482;7.408;2024-03-02T08:22:46;2.43;;;2.10;;
4355;SDS011;64374;51.482;7.408;2024-03-02T08:25:14;2.83;;;1.63;;
4355;SDS011;64374;51.482;7.408;2024-03-02T08:27:43;5.03;;;1.97;;
4355;SDS011;64374;51.482;7.408;2024-03-02T08:30:12;2.83;;;1.93;;
4355;SDS011;64374;51.482;7.408;2024-03-02T08:32:42;3.37;;;1.90;;
4355;SDS011;64374;51.482;7.408;2024-03-02T08:35:11;4.53;;;2.70;;
4355;SDS011;64374;51.482;7.408;2024-03-02T08:37:49;3.97;;;1.83;;
4355;SDS011;64374;51.482;7.408;2024-03-02T08:40:17;2.33;;;1.57;;
4355;SDS011;64374;51.482;7.408;2024-03-02T08:42:46;2.50;;;1.87;;
4355;SDS011;64374;51.482;7.408;2024-03-02T08:45:17;2.93;;;1.60;;
4355;SDS011;64374;51.482;7.408;2024-03-02T08:47:48;1.80;;;1.50;;
4355;SDS011;64374;51.482;7.408;2024-03-02T08:50:16;3.57;;;1.67;;
4355;SDS011;64374;51.482;7.408;2024-03-02T08:52:44;3.37;;;1.90;;
4355;SDS011;64374;51.482;7.408;2024-03-02T08:55:13;3.40;;;2.00;;
4355;SDS011;64374;51.482;7.408;2024-03-02T08:57:41;4.77;;;1.50;;
4355;SDS011;64374;51.482;7.408;2024-03-02T09:00:10;3.90;;;1.77;;
4355;SDS011;64374;51.482;7.408;2024-03-02T09:02:39;1.70;;;1.27;;
4355;SDS011;64374;51.482;7.408;2024-03-02T09:05:09;2.80;;;1.77;;
4355;SDS011;64374;51.482;7.408;2024-03-02T09:07:40;3.37;;;1.50;;
4355;SDS011;64374;51.482;7.408;2024-03-02T09:10:09;2.07;;;1.80;;
4355;SDS011;64374;51.482;7.408;2024-03-02T09:12:37;2.00;;;1.63;;
4355;SDS011;64374;51.482;7.408;2024-03-02T09:15:06;4.03;;;2.13;;
4355;SDS011;64374;51.482;7.408;2024-03-02T09:17:35;1.93;;;1.40;;
4355;SDS011;64374;51.482;7.408;2024-03-02T09:20:07;2.33;;;1.33;;
4355;SDS011;64374;51.482;7.408;2024-03-02T09:22:37;2.27;;;1.50;;
4355;SDS011;64374;51.482;7.408;2024-03-02T09:25:05;1.77;;;1.53;;
4355;SDS011;64374;51.482;7.408;2024-03-02T09:27:36;2.67;;;1.50;;
4355;SDS011;64374;51.482;7.408;2024-03-02T09:30:06;5.03;;;1.97;;
4355;SDS011;64374;51.482;7.408;2024-03-02T09:32:37;1.83;;;1.03;;
4355;SDS011;64374;51.482;7.408;2024-03-02T09:35:05;3.97;;;1.63;;
4355;SDS011;64374;51.482;7.408;2024-03-02T09:37:41;2.90;;;1.47;;
4355;SDS011;64374;51.482;7.408;2024-03-02T09:40:10;3.70;;;2.20;;
4355;SDS011;64374;51.482;7.408;2024-03-02T09:42:42;3.40;;;1.20;;
4355;SDS011;64374;51.482;7.408;2024-03-02T09:45:17;1.67;;;1.53;;
4355;SDS011;64374;51.482;7.408;2024-03-02T09:47:53;4.80;;;1.40;;
4355;SDS011;64374;51.482;7.408;2024-03-02T09:50:22;1.67;;;1.53;;
4355;SDS011;64374;51.482;7.408;2024-03-02T09:52:52;1.10;;;1.00;;
4355;SDS011;64374;51.482;7.408;2024-03-02T09:55:22;4.90;;;1.27;;
4355;SDS011;64374;51.482;7.408;2024-03-02T09:57:51;1.60;;;1.50;;
4355;SDS011;64374;51.482;7.408;2024-03-02T10:00:19;7.93;;;2.80;;
4355;SDS011;64374;51.482;7.408;2024-03-02T10:02:47;1.43;;;1.30;;
4355;SDS011;64374;51.482;7.408;2024-03-02T10:05:24;1.33;;;1.00;;
4355;SDS011;64374;51.482;7.408;2024-03-02T10:08:00;1.30;;;0.97;;
4355;SDS011;64374;51.482;7.408;2024-03-02T10:10:36;2.20;;;1.20;;
4355;SDS011;64374;51.482;7.408;2024-03-02T10:13:06;5.10;;;1.60;;
4355;SDS011;64374;51.482;7.408;2024-03-02T10:15:36;5.33;;;1.23;;
4355;SDS011;64374;51.482;7.408;2024-03-02T10:18:08;3.70;;;1.70;;
4355;SDS011;64374;51.482;7.408;2024-03-02T10:20:41;1.43;;;1.00;;
4355;SDS011;64374;51.482;7.408;2024-03-02T10:23:12;4.90;;;1.70;;
4355;SDS011;64374;51.482;7.408;2024-03-02T10:25:41;1.00;;;0.90;;
4355;SDS011;64374;51.482;7.408;2024-03-02T10:28:23;2.30;;;1.13;;
4355;SDS011;64374;51.482;7.408;2024-03-02T10:30:51;2.90;;;1.67;;
4355;SDS011;64374;51.482;7.408;2024-03-02T10:33:20;1.30;;;1.00;;
4355;SDS011;64374;51.482;7.408;2024-03-02T10:35:48;1.53;;;0.70;;
4355;SDS011;64374;51.482;7.408;2024-03-02T10:38:19;1.10;;;1.00;;
4355;SDS011;64374;51.482;7.408;2024-03-02T10:40:49;2.33;;;1.00;;
4355;SDS011;64374;51.482;7.408;2024-03-02T10:43:17;2.23;;;1.20;;
4355;SDS011;64374;51.482;7.408;2024-03-02T10:45:48;2.50;;;0.80;;
4355;SDS011;64374;51.482;7.408;2024-03-02T10:48:17;1.33;;;0.97;;
4355;SDS011;64374;51.482;7.408;2024-03-02T10:50:50;2.10;;;1.40;;
4355;SDS011;64374;51.482;7.408;2024-03-02T10:53:21;2.33;;;1.07;;
4355;SDS011;64374;51.482;7.408;2024-03-02T10:55:52;1.40;;;1.23;;
4355;SDS011;64374;51.482;7.408;2024-03-02T10:58:31;1.43;;;1.03;;
4355;SDS011;64374;51.482;7.408;2024-03-02T11:01:02;2.03;;;1.27;;
4355;SDS011;64374;51.482;7.408;2024-03-02T11:03:33;1.47;;;1.13;;
4355;SDS011;64374;51.482;7.408;2024-03-02T11:06:05;3.00;;;1.20;;
4355;SDS011;64374;51.482;7.408;2024-03-02T11:08:37;2.20;;;1.03;;
4355;SDS011;64374;51.482;7.408;2024-03-02T11:11:07;1.47;;;1.27;;
4355;SDS011;64374;51.482;7.408;2024-03-02T11:13:50;2.43;;;1.20;;
4355;SDS011;64374;51.482;7.408;2024-03-02T11:16:21;2.20;;;1.00;;
4355;SDS011;64374;51.482;7.408;2024-03-02T11:18:59;1.10;;;1.00;;
4355;SDS011;64374;51.482;7.408;2024-03-02T11:21:27;2.17;;;1.23;;
4355;SDS011;64374;51.482;7.408;2024-03-02T11:23:57;1.67;;;1.20;;
4355;SDS011;64374;51.482;7.408;2024-03-02T11:26:27;1.20;;;1.10;;
4355;SDS011;64374;51.482;7.408;2024-03-02T11:28:55;2.40;;;1.30;;
4355;SDS011;64374;51.482;7.408;2024-03-02T11:34:29;2.07;;;1.23;;
4355;SDS011;64374;51.482;7.408;2024-03-02T11:36:58;2.43;;;1.10;;
4355;SDS011;64374;51.482;7.408;2024-03-02T11:39:30;1.83;;;1.30;;
4355;SDS011;64374;51.482;7.408;2024-03-02T11:41:58;1.17;;;0.90;;
4355;SDS011;64374;51.482;7.408;2024-03-02T11:44:27;1.80;;;1.10;;
4355;SDS011;64374;51.482;7.408;2024-03-02T11:46:58;1.60;;;1.03;;
4355;SDS011;64374;51.482;7.408;2024-03-02T11:49:38;1.30;;;1.13;;
4355;SDS011;64374;51.482;7.408;2024-03-02T11:52:07;3.73;;;1.30;;
4355;SDS011;64374;51.482;7.408;2024-03-02T11:54:39;2.00;;;0.97;;
4355;SDS011;64374;51.482;7.408;2024-03-02T11:57:13;1.20;;;1.10;;
4355;SDS011;64374;51.482;7.408;2024-03-02T11:59:45;2.80;;;1.50;;
4355;SDS011;64374;51.482;7.408;2024-03-02T12:02:14;2.07;;;1.17;;
4355;SDS011;64374;51.482;7.408;2024-03-02T12:04:44;1.87;;;1.00;;
4355;SDS011;64374;51.482;7.408;2024-03-02T12:07:18;4.40;;;1.33;;
4355;SDS011;64374;51.482;7.408;2024-03-02T12:10:02;1.60;;;1.33;;
4355;SDS011;64374;51.482;7.408;2024-03-02T12:12:32;4.30;;;1.10;;
4355;SDS011;64374;51.482;7.408;2024-03-02T12:15:00;2.00;;;1.07;;
4355;SDS011;64374;51.482;7.408;2024-03-02T12:17:38;1.13;;;1.03;;
4355;SDS011;64374;51.482;7.408;2024-03-02T12:20:11;1.17;;;0.83;;
4355;SDS011;64374;51.482;7.408;2024-03-02T12:22:42;3.47;;;1.40;;
4355;SDS011;64374;51.482;7.408;2024-03-02T12:25:16;1.00;;;0.90;;
4355;SDS011;64374;51.482;7.408;2024-03-02T12:27:46;2.30;;;1.20;;
4355;SDS011;64374;51.482;7.408;2024-03-02T12:30:20;2.50;;;1.30;;
4355;SDS011;64374;51.482;7.408;2024-03-02T12:32:48;1.60;;;1.10;;
4355;SDS011;64374;51.482;7.408;2024-03-02T12:35:17;2.03;;;1.40;;
4355;SDS011;64374;51.482;7.408;2024-03-02T12:37:48;1.07;;;0.97;;
4355;SDS011;64374;51.482;7.408;2024-03-02T12:40:21;1.47;;;0.97;;
4355;SDS011;64374;51.482;7.408;2024-03-02T12:42:50;1.23;;;1.10;;
4355;SDS011;64374;51.482;7.408;2024-03-02T12:45:18;2.30;;;1.10;;
4355;SDS011;64374;51.482;7.408;2024-03-02T12:47:51;1.90;;;1.00;;
4355;SDS011;64374;51.482;7.408;2024-03-02T12:50:20;1.17;;;1.00;;
4355;SDS011;64374;51.482;7.408;2024-03-02T12:52:54;1.47;;;0.93;;
4355;SDS011;64374;51.482;7.408;2024-03-02T12:55:24;2.93;;;1.00;;
4355;SDS011;64374;51.482;7.408;2024-03-02T12:57:53;1.03;;;0.93;;
4355;SDS011;64374;51.482;7.408;2024-03-02T13:00:27;1.30;;;1.20;;
4355;SDS011;64374;51.482;7.408;2024-03-02T13:02:59;1.73;;;1.20;;
4355;SDS011;64374;51.482;7.408;2024-03-02T13:05:30;3.27;;;1.17;;
4355;SDS011;64374;51.482;7.408;2024-03-02T13:07:59;2.63;;;1.60;;
4355;SDS011;64374;51.482;7.408;2024-03-02T13:10:31;5.37;;;4.10;;
4355;SDS011;64374;51.482;7.408;2024-03-02T13:13:00;5.97;;;3.57;;
4355;SDS011;64374;51.482;7.408;2024-03-02T13:15:36;9.50;;;5.73;;
4355;SDS011;64374;51.482;7.408;2024-03-02T13:18:07;3.83;;;1.70;;
4355;SDS011;64374;51.482;7.408;2024-03-02T13:20:36;1.30;;;1.20;;
4355;SDS011;64374;51.482;7.408;2024-03-02T13:23:05;1.60;;;1.10;;
4355;SDS011;64374;51.482;7.408;2024-03-02T13:25:35;0.90;;;0.90;;
4355;SDS011;64374;51.482;7.408;2024-03-02T13:28:03;1.10;;;0.90;;
4355;SDS011;64374;51.482;7.408;2024-03-02T13:30:32;1.93;;;1.37;;
4355;SDS011;64374;51.482;7.408;2024-03-02T13:33:00;1.37;;;0.90;;
4355;SDS011;64374;51.482;7.408;2024-03-02T13:35:28;5.53;;;1.17;;
4355;SDS011;64374;51.482;7.408;2024-03-02T13:37:56;1.93;;;1.67;;
4355;SDS011;64374;51.482;7.408;2024-03-02T13:40:27;1.50;;;1.40;;
4355;SDS011;64374;51.482;7.408;2024-03-02T13:43:05;3.20;;;1.10;;
4355;SDS011;64374;51.482;7.408;2024-03-02T13:45:33;1.10;;;1.00;;
4355;SDS011;64374;51.482;7.408;2024-03-02T13:48:11;1.77;;;1.10;;
4355;SDS011;64374;51.482;7.408;2024-03-02T13:50:41;2.20;;;0.93;;
4355;SDS011;64374;51.482;7.408;2024-03-02T13:53:14;3.00;;;1.67;;
4355;SDS011;64374;51.482;7.408;2024-03-02T13:55:42;1.10;;;0.90;;
4355;SDS011;64374;51.482;7.408;2024-03-02T13:58:18;1.57;;;1.10;;
4355;SDS011;64374;51.482;7.408;2024-03-02T14:00:47;0.83;;;0.80;;
4355;SDS011;64374;51.482;7.408;2024-03-02T14:03:28;1.03;;;0.93;;
4355;SDS011;64374;51.482;7.408;2024-03-02T14:05:57;1.27;;;0.83;;
4355;SDS011;64374;51.482;7.408;2024-03-02T14:08:25;1.00;;;0.90;;
4355;SDS011;64374;51.482;7.408;2024-03-02T14:10:54;3.53;;;0.90;;
4355;SDS011;64374;51.482;7.408;2024-03-02T14:13:35;1.87;;;0.80;;
4355;SDS011;64374;51.482;7.408;2024-03-02T14:16:05;1.10;;;0.90;;
4355;SDS011;64374;51.482;7.408;2024-03-02T14:18:35;2.40;;;0.90;;
4355;SDS011;64374;51.482;7.408;2024-03-02T14:21:04;0.70;;;0.70;;
4355;SDS011;64374;51.482;7.408;2024-03-02T14:23:32;0.80;;;0.80;;
4355;SDS011;64374;51.482;7.408;2024-03-02T14:26:00;1.63;;;0.90;;
4355;SDS011;64374;51.482;7.408;2024-03-02T14:28:28;1.10;;;0.87;;
4355;SDS011;64374;51.482;7.408;2024-03-02T14:31:17;4.43;;;1.40;;
4355;SDS011;64374;51.482;7.408;2024-03-02T14:33:47;1.07;;;0.97;;
4355;SDS011;64374;51.482;7.408;2024-03-02T14:36:15;1.20;;;1.00;;
4355;SDS011;64374;51.482;7.408;2024-03-02T14:38:46;1.63;;;1.13;;
4355;SDS011;64374;51.482;7.408;2024-03-02T14:41:15;1.20;;;1.10;;
4355;SDS011;64374;51.482;7.408;2024-03-02T14:43:43;1.83;;;0.90;;
4355;SDS011;64374;51.482;7.408;2024-03-02T14:46:11;2.60;;;1.20;;
4355;SDS011;64374;51.482;7.408;2024-03-02T14:48:44;1.53;;;1.43;;
4355;SDS011;64374;51.482;7.408;2024-03-02T14:51:14;1.00;;;0.90;;
4355;SDS011;64374;51.482;7.408;2024-03-02T14:53:42;1.33;;;0.97;;
4355;SDS011;64374;51.482;7.408;2024-03-02T14:56:13;1.23;;;0.90;;
4355;SDS011;64374;51.482;7.408;2024-03-02T14:58:43;1.70;;;1.00;;
4355;SDS011;64374;51.482;7.408;2024-03-02T15:01:12;1.60;;;1.20;;
4355;SDS011;64374;51.482;7.408;2024-03-02T15:03:41;1.63;;;1.30;;
4355;SDS011;64374;51.482;7.408;2024-03-02T15:06:13;1.47;;;1.07;;
4355;SDS011;64374;51.482;7.408;2024-03-02T15:08:48;1.77;;;1.30;;
4355;SDS011;64374;51.482;7.408;2024-03-02T15:11:21;1.60;;;1.27;;
4355;SDS011;64374;51.482;7.408;2024-03-02T15:13:51;4.50;;;0.97;;
4355;SDS011;64374;51.482;7.408;2024-03-02T15:16:19;2.33;;;1.20;;
4355;SDS011;64374;51.482;7.408;2024-03-02T15:18:58;1.30;;;1.00;;
4355;SDS011;64374;51.482;7.408;2024-03-02T15:21:28;1.20;;;1.10;;
4355;SDS011;64374;51.482;7.408;2024-03-02T15:24:01;1.20;;;0.90;;